createdAt,value
2023-02-02T05:55:03.946Z,6.40
2023-02-02T05:57:30.844Z,5.90
2023-02-02T05:59:57.455Z,5.50
2023-02-02T06:02:24.237Z,6.80
2023-02-02T06:04:50.888Z,6.80
2023-02-02T06:07:17.597Z,6.70
2023-02-02T06:09:44.458Z,6.30
2023-02-02T06:12:11.690Z,6.90
2023-02-02T06:14:38.420Z,6.10
2023-02-02T06:17:06.197Z,6.50
2023-02-02T06:19:33.003Z,6.80
2023-02-02T06:21:59.893Z,6.60
2023-02-02T06:24:29.267Z,7.70
2023-02-02T06:26:56.655Z,6.80
2023-02-02T06:29:30.967Z,7.10
2023-02-02T06:31:58.987Z,7.60
2023-02-02T06:34:40.470Z,10.60
2023-02-02T06:37:11.103Z,8.10
2023-02-02T06:39:39.434Z,8.20
2023-02-02T06:42:20.811Z,7.60
2023-02-02T06:45:00.575Z,6.80
2023-02-02T06:47:28.194Z,6.90
2023-02-02T06:49:56.330Z,6.20
2023-02-02T06:52:26.119Z,6.80
2023-02-02T06:54:55.332Z,6.80
2023-02-02T06:57:23.792Z,7.60
2023-02-02T06:59:54.745Z,7.20
2023-02-02T07:02:24.306Z,7.40
2023-02-02T07:04:51.935Z,7.00
2023-02-02T07:07:18.815Z,6.80
2023-02-02T07:09:45.561Z,8.20
2023-02-02T07:12:12.658Z,6.80
2023-02-02T07:16:36.088Z,6.90
2023-02-02T07:19:05.515Z,7.90
2023-02-02T07:21:36.496Z,7.50
2023-02-02T07:24:06.824Z,8.40
2023-02-02T07:26:36.133Z,8.30
2023-02-02T07:29:05.060Z,8.70
2023-02-02T07:31:38.607Z,8.50
2023-02-02T07:34:07.212Z,8.10
2023-02-02T07:36:35.609Z,8.40
2023-02-02T07:39:05.692Z,8.40
2023-02-02T07:41:36.818Z,8.00
2023-02-02T07:44:07.426Z,8.20
2023-02-02T07:46:35.955Z,8.10
2023-02-02T07:49:07.347Z,8.60
2023-02-02T07:51:40.911Z,8.00
2023-02-02T07:54:10.862Z,8.50
2023-02-02T07:56:40.051Z,8.20
2023-02-02T07:59:10.968Z,8.00
2023-02-02T08:01:39.892Z,9.20
2023-02-02T08:04:08.636Z,9.00
2023-02-02T08:06:42.264Z,7.20
2023-02-02T08:09:16.755Z,8.30
2023-02-02T08:11:52.751Z,8.40
2023-02-02T08:14:24.161Z,8.10
2023-02-02T08:16:52.687Z,7.80
2023-02-02T08:19:23.072Z,7.50
2023-02-02T08:21:53.523Z,7.50
2023-02-02T08:24:22.914Z,7.70
2023-02-02T08:26:54.909Z,7.80
2023-02-02T08:29:24.887Z,7.30
2023-02-02T08:31:55.901Z,7.50
2023-02-02T08:34:37.798Z,7.40
2023-02-02T08:37:12.736Z,7.90
2023-02-02T08:39:42.808Z,7.90
2023-02-02T08:42:11.319Z,7.10
2023-02-02T08:46:07.791Z,7.30
2023-02-02T08:47:39.086Z,7.20
2023-02-02T08:50:19.840Z,6.80
2023-02-02T08:52:55.650Z,7.20
2023-02-02T08:55:32.220Z,7.00
2023-02-02T08:58:11.443Z,7.00
2023-02-02T09:00:41.432Z,7.40
2023-02-02T09:03:12.128Z,7.60
2023-02-02T09:06:12.028Z,7.30
2023-02-02T13:34:17.456Z,7.50
2023-02-02T13:36:57.866Z,7.50
2023-02-02T13:40:01.538Z,7.20
2023-02-02T13:42:45.970Z,8.00
2023-02-02T13:45:34.466Z,8.40
2023-02-02T13:48:32.483Z,8.10
2023-02-02T13:51:39.205Z,8.60
2023-02-02T13:54:24.775Z,8.20
2023-02-02T13:57:29.618Z,8.10
2023-02-02T14:00:04.273Z,8.90
2023-02-02T14:02:44.038Z,8.50
2023-02-02T14:05:22.486Z,10.80
2023-02-02T14:08:06.532Z,10.50
2023-02-02T14:10:39.682Z,10.80
2023-02-02T14:13:40.550Z,10.00
2023-02-02T14:16:18.706Z,10.10
2023-02-02T14:18:49.932Z,9.90
2023-02-02T14:21:35.170Z,10.30
2023-02-02T14:27:13.628Z,9.50
2023-02-02T14:29:46.187Z,10.70
2023-02-02T14:32:29.087Z,10.20
2023-02-02T14:35:00.557Z,10.50
2023-02-02T14:40:10.357Z,10.90
2023-02-02T14:43:24.297Z,11.50
2023-02-02T14:46:14.292Z,11.60
2023-02-02T14:48:48.088Z,12.50
2023-02-02T14:51:24.755Z,12.00
2023-02-02T14:53:53.855Z,11.10
2023-02-02T14:56:55.454Z,11.40
2023-02-02T14:59:37.098Z,12.30
2023-02-02T15:02:25.347Z,11.30
2023-02-02T15:04:53.571Z,11.90
2023-02-02T15:07:24.566Z,12.50
2023-02-02T15:09:57.550Z,11.60
2023-02-02T15:12:29.260Z,10.90
2023-02-02T15:15:36.510Z,11.30
2023-02-02T15:18:15.354Z,11.80
2023-02-02T15:20:49.021Z,12.00
2023-02-02T15:23:34.787Z,12.40
2023-02-02T15:26:16.580Z,11.50
2023-02-02T15:29:07.548Z,13.00
2023-02-02T15:31:51.400Z,11.60
2023-02-02T15:34:40.311Z,11.70
2023-02-02T15:37:16.108Z,11.10
2023-02-02T15:39:45.530Z,11.20
2023-02-02T15:42:52.421Z,11.30
2023-02-02T15:45:49.568Z,12.20
2023-02-02T15:48:24.856Z,12.90
2023-02-02T15:50:56.691Z,11.80
2023-02-02T15:53:34.516Z,14.00
2023-02-02T15:56:06.737Z,13.10
2023-02-02T15:58:33.914Z,12.40
2023-02-02T16:01:04.999Z,14.00
2023-02-02T16:03:38.109Z,12.50
2023-02-02T16:06:07.727Z,11.10
2023-02-02T16:08:35.990Z,12.70
2023-02-02T16:11:03.685Z,12.80
2023-02-02T16:13:31.433Z,12.10
2023-02-02T16:16:03.262Z,12.80
2023-02-02T16:18:34.865Z,11.80
2023-02-02T16:21:06.304Z,11.00
2023-02-02T16:23:36.304Z,11.50
2023-02-02T16:26:06.064Z,12.80
2023-02-02T16:28:32.954Z,12.10
2023-02-02T16:31:02.353Z,11.80
2023-02-02T16:33:38.723Z,11.70
2023-02-02T16:36:26.561Z,11.40
2023-02-02T16:38:57.107Z,13.40
2023-02-02T16:41:32.991Z,13.70
2023-02-02T16:44:32.465Z,14.30
2023-02-02T16:47:01.157Z,12.80
2023-02-02T16:49:29.588Z,13.40
2023-02-02T16:52:18.281Z,14.70
2023-02-02T16:54:53.225Z,11.30
2023-02-02T16:57:26.196Z,13.20
2023-02-02T16:59:54.582Z,12.90
2023-02-02T17:02:39.910Z,13.10
2023-02-02T17:05:15.370Z,13.20
2023-02-02T17:07:46.431Z,11.90
2023-02-02T17:10:17.553Z,13.50
2023-02-02T17:12:45.301Z,12.10
2023-02-02T17:15:17.936Z,13.30
2023-02-02T17:17:47.728Z,12.00
2023-02-02T17:20:17.823Z,13.10
2023-02-02T17:22:55.974Z,13.00
2023-02-02T17:25:27.976Z,14.80
2023-02-02T17:27:56.036Z,15.00
2023-02-02T17:30:23.879Z,13.00
2023-02-02T17:32:50.885Z,14.80
2023-02-02T17:35:23.294Z,13.70
2023-02-02T17:37:52.125Z,14.10
2023-02-02T17:40:20.426Z,14.30
2023-02-02T17:42:48.937Z,13.90
2023-02-02T17:45:24.521Z,13.60
2023-02-02T17:47:54.856Z,14.20
2023-02-02T17:50:21.906Z,14.60
2023-02-02T17:52:49.227Z,14.90
2023-02-02T17:55:29.873Z,14.90
2023-02-02T17:57:56.712Z,13.10
2023-02-02T18:00:24.723Z,14.90
2023-02-02T18:02:55.263Z,12.70
2023-02-02T18:07:51.028Z,14.20
2023-02-02T18:10:24.221Z,14.80
2023-02-02T18:12:51.841Z,15.30
2023-02-02T18:15:18.897Z,14.90
2023-02-02T18:17:45.834Z,13.60
